createdAt,value
2022-09-18T00:00:58.249Z,2.53
2022-09-18T00:03:24.627Z,2.53
2022-09-18T00:05:51.475Z,2.70
2022-09-18T00:08:17.801Z,1.93
2022-09-18T00:10:46.627Z,2.00
2022-09-18T00:13:14.856Z,2.07
2022-09-18T00:15:41.850Z,2.40
2022-09-18T00:18:08.899Z,1.90
2022-09-18T00:20:36.174Z,2.10
2022-09-18T00:23:02.969Z,2.03
2022-09-18T00:25:29.837Z,2.27
2022-09-18T00:27:56.156Z,2.43
2022-09-18T00:30:22.625Z,2.13
2022-09-18T00:32:48.961Z,2.53
2022-09-18T00:35:15.398Z,1.93
2022-09-18T00:37:41.717Z,2.30
2022-09-18T00:40:08.593Z,1.87
2022-09-18T00:42:34.947Z,2.60
2022-09-18T00:45:01.330Z,2.60
2022-09-18T00:47:35.220Z,2.23
2022-09-18T00:50:08.157Z,2.30
2022-09-18T00:52:45.485Z,2.33
2022-09-18T00:55:12.582Z,2.40
2022-09-18T00:57:44.452Z,2.50
2022-09-18T01:00:14.633Z,2.33
2022-09-18T01:02:43.522Z,2.43
2022-09-18T01:05:11.166Z,2.80
2022-09-18T01:07:44.923Z,3.07
2022-09-18T01:10:34.303Z,2.50
2022-09-18T01:13:20.219Z,2.00
2022-09-18T01:16:01.752Z,2.43
2022-09-18T01:18:36.297Z,2.43
2022-09-18T01:21:14.911Z,2.03
2022-09-18T01:24:16.547Z,2.67
2022-09-18T01:26:55.265Z,2.33
2022-09-18T01:29:47.829Z,2.27
2022-09-18T01:32:24.513Z,3.10
2022-09-18T01:35:40.048Z,3.07
2022-09-18T01:38:28.909Z,2.47
2022-09-18T01:41:08.040Z,2.50
2022-09-18T01:43:36.139Z,2.57
2022-09-18T01:46:07.589Z,1.90
2022-09-18T01:48:39.435Z,2.20
2022-09-18T01:51:15.044Z,3.00
2022-09-18T01:53:47.774Z,2.50
2022-09-18T01:56:21.928Z,2.50
2022-09-18T01:58:51.094Z,2.47
2022-09-18T02:01:21.310Z,2.77
2022-09-18T02:03:56.965Z,2.47
2022-09-18T02:06:34.628Z,2.33
2022-09-18T02:09:02.351Z,2.43
2022-09-18T02:11:30.868Z,2.40
2022-09-18T02:14:08.151Z,2.80
2022-09-18T02:16:44.357Z,2.07
2022-09-18T02:19:18.437Z,2.83
2022-09-18T02:21:47.380Z,2.50
2022-09-18T02:24:18.621Z,2.27
2022-09-18T02:26:48.483Z,2.77
2022-09-18T02:29:17.437Z,2.83
2022-09-18T02:31:43.964Z,2.40
2022-09-18T02:34:12.417Z,2.70
2022-09-18T02:37:02.151Z,2.30
2022-09-18T02:40:11.237Z,1.83
2022-09-18T02:42:53.622Z,2.43
2022-09-18T02:45:36.882Z,1.93
2022-09-18T02:48:21.286Z,2.27
2022-09-18T02:51:15.384Z,2.20
2022-09-18T02:53:52.248Z,2.10
2022-09-18T02:56:41.395Z,2.30
2022-09-18T02:59:19.703Z,1.97
2022-09-18T03:01:47.301Z,2.23
2022-09-18T03:04:19.304Z,2.20
2022-09-18T03:06:45.657Z,1.97
2022-09-18T03:09:11.980Z,2.20
2022-09-18T03:11:38.357Z,2.07
2022-09-18T03:14:04.707Z,2.93
2022-09-18T03:16:31.164Z,2.50
2022-09-18T03:18:58.024Z,1.93
2022-09-18T03:21:24.771Z,2.00
2022-09-18T03:23:51.440Z,1.60
2022-09-18T03:26:18.249Z,1.60
2022-09-18T03:28:44.882Z,1.93
2022-09-18T03:31:11.919Z,2.43
2022-09-18T03:33:38.447Z,1.97
2022-09-18T03:36:06.128Z,2.10
2022-09-18T03:38:33.428Z,1.37
2022-09-18T03:41:00.167Z,1.60
2022-09-18T03:43:27.234Z,1.83
2022-09-18T03:45:53.824Z,1.70
2022-09-18T03:48:20.437Z,2.20
2022-09-18T03:50:49.857Z,2.30
2022-09-18T03:53:16.725Z,2.17
2022-09-18T03:55:43.279Z,2.00
2022-09-18T03:58:09.645Z,2.00
2022-09-18T04:00:36.027Z,1.53
2022-09-18T04:03:02.485Z,1.43
2022-09-18T04:05:28.881Z,1.87
2022-09-18T04:07:55.231Z,1.60
2022-09-18T04:10:22.616Z,2.33
2022-09-18T04:12:49.042Z,2.17
2022-09-18T04:15:15.949Z,2.10
2022-09-18T04:17:42.782Z,2.00
2022-09-18T04:20:09.551Z,2.87
2022-09-18T04:22:36.032Z,2.03
2022-09-18T04:25:04.289Z,1.90
2022-09-18T04:27:30.776Z,3.00
2022-09-18T04:29:57.096Z,2.60
2022-09-18T04:32:23.619Z,1.73
2022-09-18T04:34:49.930Z,2.13
2022-09-18T04:37:16.336Z,2.07
2022-09-18T04:39:42.677Z,2.00
2022-09-18T04:42:09.051Z,2.43
2022-09-18T04:44:35.380Z,2.17
2022-09-18T04:47:01.917Z,2.33
2022-09-18T04:49:28.262Z,2.17
2022-09-18T04:51:54.670Z,2.23
2022-09-18T04:54:21.006Z,2.63
2022-09-18T04:56:47.343Z,2.60
2022-09-18T04:59:13.690Z,2.83
2022-09-18T05:01:40.270Z,2.27
2022-09-18T05:04:06.872Z,2.67
2022-09-18T05:06:33.213Z,2.53
2022-09-18T05:08:59.780Z,2.27
2022-09-18T05:11:26.165Z,2.47
2022-09-18T05:13:56.594Z,2.67
2022-09-18T05:16:24.060Z,2.90
2022-09-18T05:18:51.911Z,2.13
2022-09-18T05:21:19.036Z,2.80
2022-09-18T05:23:46.852Z,3.27
2022-09-18T05:26:14.218Z,2.37
2022-09-18T05:28:40.884Z,2.37
2022-09-18T05:31:07.746Z,2.40
2022-09-18T05:33:34.313Z,2.37
2022-09-18T05:36:00.657Z,2.23
2022-09-18T05:38:27.535Z,2.23
2022-09-18T05:40:53.865Z,2.00
2022-09-18T05:43:20.506Z,2.13
2022-09-18T05:45:46.872Z,2.27
2022-09-18T05:48:13.305Z,2.10
2022-09-18T05:50:40.141Z,2.30
2022-09-18T05:53:10.526Z,1.90
2022-09-18T05:55:37.060Z,2.10
2022-09-18T05:58:05.374Z,2.50
2022-09-18T06:00:34.520Z,2.17
2022-09-18T06:03:03.511Z,2.23
2022-09-18T06:05:31.377Z,2.17
2022-09-18T06:07:59.876Z,2.27
2022-09-18T06:10:26.824Z,2.10
2022-09-18T06:13:06.034Z,1.80
2022-09-18T06:15:32.857Z,2.30
2022-09-18T06:17:59.704Z,1.80
2022-09-18T06:20:27.202Z,2.43
2022-09-18T06:22:53.758Z,1.83
2022-09-18T06:25:21.758Z,2.17
2022-09-18T06:27:58.364Z,3.07
2022-09-18T06:30:30.091Z,2.13
2022-09-18T06:33:01.165Z,2.10
2022-09-18T06:35:27.713Z,2.10
2022-09-18T06:37:55.632Z,2.30
2022-09-18T06:40:23.890Z,2.30
2022-09-18T06:42:55.675Z,2.50
2022-09-18T06:45:22.121Z,1.80
2022-09-18T06:47:48.435Z,1.93
2022-09-18T06:50:14.800Z,2.57
2022-09-18T06:52:41.123Z,2.57
2022-09-18T06:55:07.932Z,2.87
2022-09-18T06:57:34.276Z,2.23
2022-09-18T07:00:00.837Z,2.50
2022-09-18T07:02:27.197Z,2.70
2022-09-18T07:04:53.574Z,1.90
2022-09-18T07:07:19.908Z,1.93
2022-09-18T07:09:46.273Z,2.30
2022-09-18T07:12:12.694Z,1.73
2022-09-18T07:14:39.118Z,2.10
2022-09-18T07:17:11.213Z,2.00
2022-09-18T07:19:40.585Z,1.63
2022-09-18T07:22:06.985Z,2.23
2022-09-18T07:24:33.399Z,2.33
2022-09-18T07:26:59.718Z,2.13
2022-09-18T07:29:26.356Z,2.10
2022-09-18T07:31:52.757Z,2.30
2022-09-18T07:34:19.187Z,2.20
2022-09-18T07:36:49.637Z,2.00
2022-09-18T07:39:15.990Z,2.20
2022-09-18T07:41:43.554Z,1.90
2022-09-18T07:44:10.000Z,1.70
2022-09-18T07:46:36.404Z,2.00
2022-09-18T07:49:03.212Z,2.17
2022-09-18T07:51:29.598Z,2.10
2022-09-18T07:53:55.908Z,2.37
2022-09-18T07:56:22.268Z,1.90
2022-09-18T07:58:48.600Z,2.40
2022-09-18T08:01:15.224Z,1.50
2022-09-18T08:03:41.855Z,1.60
2022-09-18T08:06:08.384Z,2.30
2022-09-18T08:08:36.134Z,2.23
2022-09-18T08:11:03.183Z,2.10
2022-09-18T08:13:29.709Z,1.93
2022-09-18T08:15:56.146Z,2.37
2022-09-18T08:18:22.492Z,1.80
2022-09-18T08:20:48.907Z,2.57
2022-09-18T08:23:15.262Z,1.70
2022-09-18T08:25:42.150Z,1.67
2022-09-18T08:28:08.488Z,1.77
2022-09-18T08:30:34.890Z,1.93
2022-09-18T08:33:03.209Z,1.57
2022-09-18T08:35:30.690Z,1.67
2022-09-18T08:37:58.019Z,1.90
2022-09-18T08:40:34.394Z,2.17
2022-09-18T08:43:39.793Z,2.10
2022-09-18T08:46:15.230Z,3.00
2022-09-18T08:48:53.041Z,3.87
2022-09-18T08:51:26.072Z,3.90
2022-09-18T08:53:56.803Z,2.43
2022-09-18T08:56:25.595Z,1.90
2022-09-18T08:59:01.068Z,2.17
2022-09-18T09:01:40.142Z,2.50
2022-09-18T09:04:19.447Z,2.17
2022-09-18T09:07:25.331Z,2.80
2022-09-18T09:10:04.291Z,2.03
2022-09-18T09:13:08.461Z,1.70
2022-09-18T09:15:47.268Z,1.90
2022-09-18T09:18:32.836Z,1.60
2022-09-18T09:21:16.140Z,2.07
2022-09-18T09:24:01.168Z,2.30
2022-09-18T09:26:28.239Z,1.90
2022-09-18T09:29:13.430Z,1.83
2022-09-18T09:31:46.662Z,2.80
2022-09-18T09:34:21.849Z,1.90
2022-09-18T09:36:50.588Z,1.93
2022-09-18T09:39:32.561Z,2.07
2022-09-18T09:42:07.663Z,1.60
2022-09-18T09:44:39.941Z,2.70
2022-09-18T09:47:32.053Z,2.20
2022-09-18T09:50:13.536Z,2.37
2022-09-18T09:52:41.512Z,1.87
2022-09-18T09:55:13.679Z,1.57
2022-09-18T09:57:48.557Z,1.43
2022-09-18T10:00:18.061Z,2.23
2022-09-18T10:02:50.291Z,2.70
2022-09-18T10:05:34.855Z,3.00
2022-09-18T10:08:11.808Z,2.73
2022-09-18T10:10:51.623Z,2.70
2022-09-18T10:13:22.580Z,2.30
2022-09-18T10:15:51.429Z,2.63
2022-09-18T10:18:22.955Z,1.90
2022-09-18T10:20:53.488Z,1.90
2022-09-18T10:23:41.160Z,1.60
2022-09-18T10:26:15.152Z,2.00
2022-09-18T10:28:41.471Z,2.10
2022-09-18T10:31:12.775Z,1.80
2022-09-18T10:33:40.555Z,3.40
2022-09-18T10:36:30.214Z,2.20
2022-09-18T10:38:58.842Z,2.20
2022-09-18T10:41:35.894Z,1.60
2022-09-18T10:44:14.339Z,1.37
2022-09-18T10:46:51.904Z,1.30
2022-09-18T10:49:23.595Z,1.63
2022-09-18T10:52:29.695Z,1.87
2022-09-18T10:55:13.238Z,1.20
2022-09-18T10:57:44.127Z,1.27
2022-09-18T11:00:32.386Z,1.40
2022-09-18T11:03:15.761Z,1.30
2022-09-18T11:05:52.580Z,1.20
2022-09-18T11:08:24.147Z,1.67
2022-09-18T11:10:55.285Z,1.73
2022-09-18T11:13:27.567Z,0.83
2022-09-18T11:15:57.684Z,1.30
2022-09-18T11:18:28.998Z,2.07
2022-09-18T11:20:58.169Z,1.47
2022-09-18T11:23:25.910Z,1.37
2022-09-18T11:26:11.346Z,1.17
2022-09-18T11:28:38.713Z,1.20
2022-09-18T11:31:19.438Z,1.73
2022-09-18T11:33:52.581Z,2.10
2022-09-18T11:36:27.625Z,1.50
2022-09-18T11:38:55.048Z,1.67
2022-09-18T11:41:33.266Z,1.37
2022-09-18T11:44:05.616Z,1.40
2022-09-18T11:47:09.506Z,1.67
2022-09-18T11:49:52.276Z,1.63
2022-09-18T11:52:24.603Z,1.77
2022-09-18T11:54:59.500Z,1.60
2022-09-18T11:57:31.304Z,1.90
2022-09-18T12:00:06.682Z,2.00
2022-09-18T12:03:08.336Z,1.83
2022-09-18T12:05:47.323Z,1.70
2022-09-18T12:08:24.996Z,1.93
2022-09-18T12:11:17.053Z,1.80
2022-09-18T12:14:02.236Z,1.50
2022-09-18T12:16:47.733Z,2.90
2022-09-18T12:19:27.052Z,1.90
2022-09-18T12:22:04.982Z,2.43
2022-09-18T12:24:31.515Z,2.20
2022-09-18T12:27:05.746Z,1.90
2022-09-18T12:29:50.606Z,1.93
2022-09-18T12:32:49.108Z,2.00
2022-09-18T12:35:36.424Z,2.07
2022-09-18T12:38:31.735Z,1.97
2022-09-18T12:41:36.594Z,1.50
2022-09-18T12:44:28.454Z,1.87
2022-09-18T12:47:00.834Z,2.10
2022-09-18T12:49:57.081Z,1.83
2022-09-18T12:53:08.697Z,1.60
2022-09-18T12:55:52.032Z,3.20
2022-09-18T12:58:42.551Z,2.40
2022-09-18T13:01:37.157Z,1.93
2022-09-18T13:04:27.251Z,2.27
2022-09-18T13:07:07.642Z,1.73
2022-09-18T13:09:40.490Z,2.10
2022-09-18T13:12:19.833Z,2.23
2022-09-18T13:14:55.724Z,2.00
2022-09-18T13:17:29.483Z,1.73
2022-09-18T13:20:11.143Z,1.77
2022-09-18T13:22:38.827Z,1.77
2022-09-18T13:25:20.057Z,1.50
2022-09-18T13:27:46.828Z,1.50
2022-09-18T13:30:32.159Z,1.30
2022-09-18T13:33:00.219Z,1.20
2022-09-18T13:35:29.948Z,1.67
2022-09-18T13:38:13.603Z,1.47
2022-09-18T13:40:46.887Z,1.20
2022-09-18T13:43:14.480Z,1.53
2022-09-18T13:45:40.855Z,0.90
2022-09-18T13:48:22.953Z,1.47
2022-09-18T13:51:02.543Z,1.50
2022-09-18T13:53:39.971Z,1.40
2022-09-18T13:56:08.830Z,1.30
2022-09-18T13:58:53.547Z,1.67
2022-09-18T14:01:46.422Z,1.20
2022-09-18T14:04:40.715Z,1.30
2022-09-18T14:07:27.242Z,1.57
2022-09-18T14:09:55.806Z,1.13
2022-09-18T14:12:23.862Z,1.30
2022-09-18T14:15:00.995Z,1.27
2022-09-18T14:17:29.456Z,1.30
2022-09-18T14:20:04.979Z,1.63
2022-09-18T14:22:34.246Z,1.30
2022-09-18T14:25:03.317Z,0.87
2022-09-18T14:27:31.793Z,1.47
2022-09-18T14:30:02.535Z,1.63
2022-09-18T14:32:29.290Z,1.70
2022-09-18T14:35:22.343Z,1.57
2022-09-18T14:37:48.850Z,1.30
2022-09-18T14:40:21.737Z,1.43
2022-09-18T14:42:48.794Z,1.30
2022-09-18T14:45:24.434Z,1.70
2022-09-18T14:47:50.933Z,1.73
2022-09-18T14:50:31.315Z,1.47
2022-09-18T14:53:00.558Z,1.20
2022-09-18T14:55:41.549Z,1.43
2022-09-18T14:58:14.070Z,1.73
2022-09-18T15:00:40.667Z,1.70
2022-09-18T15:03:33.969Z,1.47
2022-09-18T15:06:22.506Z,1.90
2022-09-18T15:08:52.354Z,2.33
2022-09-18T15:11:22.012Z,1.40
2022-09-18T15:13:51.702Z,2.00
2022-09-18T15:16:38.389Z,1.80
2022-09-18T15:19:17.339Z,2.23
2022-09-18T15:21:47.323Z,1.83
2022-09-18T15:24:15.684Z,2.00
2022-09-18T15:26:46.248Z,1.70
2022-09-18T15:29:25.913Z,1.47
2022-09-18T15:31:53.641Z,1.90
2022-09-18T15:34:27.761Z,2.03
2022-09-18T15:37:01.177Z,1.87
2022-09-18T15:39:31.821Z,1.50
2022-09-18T15:42:29.219Z,1.90
2022-09-18T15:45:01.631Z,1.63
2022-09-18T15:47:42.720Z,1.70
2022-09-18T15:50:12.049Z,1.80
2022-09-18T15:52:47.263Z,1.67
2022-09-18T15:55:22.062Z,1.40
2022-09-18T15:57:49.314Z,1.53
2022-09-18T16:00:24.587Z,2.07
2022-09-18T16:02:53.507Z,1.60
2022-09-18T16:05:21.569Z,1.57
2022-09-18T16:07:57.899Z,1.30
2022-09-18T16:10:41.488Z,1.63
2022-09-18T16:13:10.766Z,1.33
2022-09-18T16:15:37.675Z,1.43
2022-09-18T16:18:16.151Z,1.37
2022-09-18T16:20:58.643Z,1.77
2022-09-18T16:23:35.906Z,2.10
2022-09-18T16:26:06.691Z,1.47
2022-09-18T16:28:35.991Z,1.47
2022-09-18T16:31:02.754Z,1.60
2022-09-18T16:33:32.394Z,1.40
2022-09-18T16:36:11.699Z,1.60
2022-09-18T16:38:38.187Z,1.00
2022-09-18T16:41:04.759Z,1.90
2022-09-18T16:43:31.094Z,1.43
2022-09-18T16:45:57.944Z,1.70
2022-09-18T16:48:24.811Z,2.23
2022-09-18T16:50:51.238Z,1.80
2022-09-18T16:53:17.735Z,1.33
2022-09-18T16:55:49.639Z,2.20
2022-09-18T16:58:18.339Z,1.77
2022-09-18T17:00:45.026Z,2.43
2022-09-18T17:03:12.023Z,2.60
2022-09-18T17:05:38.713Z,1.70
2022-09-18T17:08:05.459Z,2.50
2022-09-18T17:10:33.034Z,1.80
2022-09-18T17:12:59.811Z,1.63
2022-09-18T17:15:26.851Z,2.20
2022-09-18T17:17:53.183Z,1.83
2022-09-18T17:20:19.772Z,2.60
2022-09-18T17:22:47.217Z,1.90
2022-09-18T17:25:15.015Z,1.57
2022-09-18T17:27:43.934Z,1.80
2022-09-18T17:30:11.600Z,1.60
2022-09-18T17:32:38.386Z,2.00
2022-09-18T17:35:05.080Z,2.30
2022-09-18T17:37:31.557Z,1.77
2022-09-18T17:40:00.305Z,1.70
2022-09-18T17:42:26.819Z,1.70
2022-09-18T17:44:53.180Z,3.20
2022-09-18T17:47:20.618Z,2.40
2022-09-18T17:49:47.123Z,2.00
2022-09-18T17:52:13.554Z,1.90
2022-09-18T17:54:39.899Z,1.87
2022-09-18T17:57:12.148Z,2.30
2022-09-18T17:59:40.108Z,1.83
2022-09-18T18:02:07.874Z,2.23
2022-09-18T18:04:34.466Z,1.63
2022-09-18T18:07:00.897Z,1.70
2022-09-18T18:09:27.249Z,1.90
2022-09-18T18:11:54.859Z,1.97
2022-09-18T18:14:25.036Z,2.37
2022-09-18T18:16:52.713Z,1.83
2022-09-18T18:19:19.202Z,2.07
2022-09-18T18:21:45.640Z,1.60
2022-09-18T18:24:15.226Z,1.67
2022-09-18T18:26:42.977Z,1.80
2022-09-18T18:29:11.736Z,2.10
2022-09-18T18:31:40.483Z,1.80
2022-09-18T18:34:10.577Z,1.80
2022-09-18T18:36:38.940Z,1.93
2022-09-18T18:39:09.706Z,2.00
2022-09-18T18:41:36.860Z,2.10
2022-09-18T18:44:05.726Z,2.30
2022-09-18T18:46:35.828Z,2.27
2022-09-18T18:49:09.291Z,2.23
2022-09-18T18:51:47.140Z,2.50
2022-09-18T18:54:18.805Z,2.13
2022-09-18T18:56:46.322Z,2.17
2022-09-18T18:59:15.686Z,2.10
2022-09-18T19:01:43.453Z,3.53
2022-09-18T19:04:12.759Z,2.13
2022-09-18T19:06:41.891Z,2.50
2022-09-18T19:09:11.263Z,1.60
2022-09-18T19:11:42.735Z,2.43
2022-09-18T19:14:12.860Z,2.43
2022-09-18T19:16:39.383Z,2.63
2022-09-18T19:19:09.510Z,1.90
2022-09-18T19:21:37.774Z,2.53
2022-09-18T19:24:05.965Z,2.40
2022-09-18T19:26:32.782Z,2.93
2022-09-18T19:29:01.305Z,2.60
2022-09-18T19:31:29.238Z,2.57
2022-09-18T19:33:56.229Z,2.87
2022-09-18T19:36:24.494Z,2.23
2022-09-18T19:38:55.579Z,2.60
2022-09-18T19:41:43.175Z,2.70
2022-09-18T19:44:25.599Z,3.10
2022-09-18T19:46:54.403Z,2.70
2022-09-18T19:49:31.956Z,2.57
2022-09-18T19:51:58.615Z,2.73
2022-09-18T19:54:25.175Z,2.47
2022-09-18T19:56:52.068Z,2.50
2022-09-18T19:59:18.431Z,2.57
2022-09-18T20:01:45.211Z,2.40
2022-09-18T20:04:11.566Z,2.30
2022-09-18T20:06:42.502Z,2.53
2022-09-18T20:09:09.524Z,2.23
2022-09-18T20:11:35.963Z,2.67
2022-09-18T20:14:02.279Z,2.03
2022-09-18T20:16:28.709Z,2.27
2022-09-18T20:18:55.072Z,1.97
2022-09-18T20:21:21.426Z,2.20
2022-09-18T20:23:48.245Z,2.23
2022-09-18T20:26:17.508Z,2.40
2022-09-18T20:28:44.632Z,1.90
2022-09-18T20:31:13.784Z,1.63
2022-09-18T20:33:40.460Z,1.60
2022-09-18T20:36:08.910Z,1.87
2022-09-18T20:38:40.686Z,1.70
2022-09-18T20:41:10.959Z,1.80
2022-09-18T20:43:39.623Z,1.50
2022-09-18T20:46:07.728Z,1.70
2022-09-18T20:48:41.236Z,1.47
2022-09-18T20:51:12.242Z,1.70
2022-09-18T20:53:40.932Z,1.60
2022-09-18T20:56:09.319Z,1.60
2022-09-18T20:58:36.762Z,1.10
2022-09-18T21:01:08.307Z,1.47
2022-09-18T21:03:39.622Z,1.43
2022-09-18T21:06:21.967Z,1.40
2022-09-18T21:08:52.971Z,1.60
2022-09-18T21:11:30.314Z,1.10
2022-09-18T21:14:00.874Z,1.53
2022-09-18T21:16:29.835Z,1.50
2022-09-18T21:19:00.232Z,1.60
2022-09-18T21:21:28.554Z,1.50
2022-09-18T21:24:01.924Z,1.30
2022-09-18T21:26:33.091Z,1.50
2022-09-18T21:29:12.561Z,1.57
2022-09-18T21:31:42.539Z,1.93
2022-09-18T21:34:12.044Z,1.90
2022-09-18T21:36:38.787Z,1.60
2022-09-18T21:39:09.904Z,1.20
2022-09-18T21:41:38.073Z,1.87
2022-09-18T21:44:08.634Z,1.30
2022-09-18T21:46:37.957Z,1.33
2022-09-18T21:49:06.766Z,1.53
2022-09-18T21:51:37.274Z,1.43
2022-09-18T21:54:05.802Z,1.70
2022-09-18T21:56:33.426Z,1.47
2022-09-18T21:59:00.305Z,1.50
2022-09-18T22:01:32.043Z,1.20
2022-09-18T22:04:00.902Z,1.40
2022-09-18T22:06:29.707Z,1.23
2022-09-18T22:08:58.391Z,1.40
2022-09-18T22:11:30.159Z,1.20
2022-09-18T22:13:59.598Z,1.40
2022-09-18T22:16:28.455Z,1.17
2022-09-18T22:18:55.414Z,1.20
2022-09-18T22:21:30.820Z,1.20
2022-09-18T22:24:06.356Z,1.17
2022-09-18T22:26:41.458Z,1.20
2022-09-18T22:29:13.178Z,1.07
2022-09-18T22:31:39.575Z,1.07
2022-09-18T22:34:06.734Z,1.33
2022-09-18T22:36:33.660Z,1.40
2022-09-18T22:39:00.184Z,1.40
2022-09-18T22:41:26.619Z,1.10
2022-09-18T22:43:55.082Z,1.20
2022-09-18T22:46:22.480Z,1.10
2022-09-18T22:48:49.734Z,1.30
2022-09-18T22:51:19.183Z,1.37
2022-09-18T22:53:57.241Z,1.20
2022-09-18T22:56:26.032Z,1.07
2022-09-18T22:58:53.905Z,1.37
2022-09-18T23:01:33.030Z,1.03
2022-09-18T23:04:02.410Z,1.10
2022-09-18T23:06:30.379Z,1.00
2022-09-18T23:09:00.529Z,1.00
2022-09-18T23:11:30.268Z,0.90
2022-09-18T23:14:07.848Z,1.13
2022-09-18T23:16:36.290Z,0.90
2022-09-18T23:19:10.032Z,1.20
2022-09-18T23:21:40.044Z,0.80
2022-09-18T23:24:09.336Z,1.00
2022-09-18T23:26:39.650Z,1.30
2022-09-18T23:29:09.313Z,1.10
2022-09-18T23:31:38.497Z,1.40
2022-09-18T23:34:07.915Z,0.90
2022-09-18T23:36:36.974Z,1.00
2022-09-18T23:39:08.370Z,0.90
2022-09-18T23:41:35.063Z,0.90
2022-09-18T23:44:02.885Z,0.90
2022-09-18T23:46:29.592Z,0.80
2022-09-18T23:48:56.215Z,1.00
2022-09-18T23:51:31.067Z,1.10
2022-09-18T23:54:00.538Z,0.90
2022-09-18T23:56:29.128Z,1.10
2022-09-18T23:58:58.555Z,1.03
